createdAt,value
2023-09-27T00:01:25.824Z,11.92
2023-09-27T00:03:52.614Z,11.90
2023-09-27T00:06:19.349Z,11.82
2023-09-27T00:08:46.227Z,11.78
2023-09-27T00:11:13.421Z,11.78
2023-09-27T00:13:40.295Z,11.76
2023-09-27T00:16:07.020Z,11.73
2023-09-27T00:18:34.475Z,11.68
2023-09-27T00:21:01.214Z,11.60
2023-09-27T00:23:28.114Z,11.58
2023-09-27T00:25:54.786Z,11.60
2023-09-27T00:28:21.544Z,11.58
2023-09-27T00:30:51.015Z,11.55
2023-09-27T00:33:17.743Z,11.52
2023-09-27T00:35:49.625Z,11.44
2023-09-27T00:38:16.306Z,11.41
2023-09-27T00:40:48.085Z,11.42
2023-09-27T00:43:31.439Z,11.39
2023-09-27T00:46:02.436Z,11.35
2023-09-27T00:48:30.944Z,11.30
2023-09-27T00:50:58.149Z,11.30
2023-09-27T00:53:30.092Z,11.24
2023-09-27T00:55:57.315Z,11.23
2023-09-27T00:58:25.440Z,11.21
2023-09-27T01:00:53.297Z,11.19
2023-09-27T01:03:20.557Z,11.19
2023-09-27T01:05:48.477Z,11.20
2023-09-27T01:08:15.166Z,11.12
2023-09-27T01:10:42.540Z,11.10
2023-09-27T01:13:10.171Z,11.12
2023-09-27T01:15:37.027Z,11.00
2023-09-27T01:18:03.972Z,11.08
2023-09-27T01:20:32.410Z,11.06
2023-09-27T01:23:03.595Z,11.06
2023-09-27T01:25:35.019Z,10.94
2023-09-27T01:28:05.005Z,11.01
2023-09-27T01:30:35.151Z,10.93
2023-09-27T01:33:12.373Z,10.89
2023-09-27T01:35:40.669Z,10.87
2023-09-27T01:38:08.987Z,10.82
2023-09-27T01:40:41.240Z,10.78
2023-09-27T01:43:08.425Z,10.76
2023-09-27T01:45:35.627Z,10.76
2023-09-27T01:48:03.281Z,10.75
2023-09-27T01:50:33.437Z,10.75
2023-09-27T01:53:01.163Z,10.69
2023-09-27T01:55:28.799Z,10.69
2023-09-27T01:57:56.599Z,10.66
2023-09-27T02:00:23.658Z,10.72
2023-09-27T02:02:51.885Z,10.72
2023-09-27T02:05:19.091Z,10.69
2023-09-27T02:07:45.952Z,10.63
2023-09-27T02:10:13.839Z,10.63
2023-09-27T02:12:40.833Z,10.60
2023-09-27T02:15:10.354Z,10.58
2023-09-27T02:17:40.611Z,10.57
2023-09-27T02:20:09.941Z,10.53
2023-09-27T02:22:37.470Z,10.48
2023-09-27T02:25:06.390Z,10.47
2023-09-27T02:27:33.632Z,10.49
2023-09-27T02:30:00.383Z,10.50
2023-09-27T02:32:27.158Z,10.49
2023-09-27T02:34:53.997Z,10.47
2023-09-27T02:37:21.718Z,10.48
2023-09-27T02:39:49.034Z,10.36
2023-09-27T02:42:15.713Z,10.44
2023-09-27T02:44:42.618Z,10.38
2023-09-27T02:47:09.546Z,10.35
2023-09-27T02:49:36.424Z,10.36
2023-09-27T02:52:03.110Z,10.31
2023-09-27T02:54:29.903Z,10.25
2023-09-27T02:56:56.755Z,10.25
2023-09-27T02:59:23.523Z,10.27
2023-09-27T03:01:50.468Z,10.23
2023-09-27T03:04:17.238Z,10.23
2023-09-27T03:06:43.862Z,10.26
2023-09-27T03:09:14.031Z,10.26
2023-09-27T03:11:43.249Z,10.26
2023-09-27T03:14:10.300Z,10.26
2023-09-27T03:16:38.539Z,10.21
2023-09-27T03:19:05.719Z,10.17
2023-09-27T03:21:32.422Z,10.19
2023-09-27T03:23:59.119Z,10.17
2023-09-27T03:26:25.858Z,10.13
2023-09-27T03:28:53.349Z,10.09
2023-09-27T03:31:21.078Z,10.01
2023-09-27T03:33:47.753Z,10.03
2023-09-27T03:36:16.062Z,9.98
2023-09-27T03:38:43.441Z,9.95
2023-09-27T03:41:11.141Z,9.96
2023-09-27T03:43:38.544Z,9.98
2023-09-27T03:46:05.529Z,9.97
2023-09-27T03:48:33.175Z,9.93
2023-09-27T03:51:00.302Z,9.92
2023-09-27T03:53:27.082Z,9.84
2023-09-27T03:55:53.779Z,9.85
2023-09-27T03:58:21.339Z,9.83
2023-09-27T04:00:48.285Z,9.83
2023-09-27T04:03:15.094Z,9.84
2023-09-27T04:05:42.052Z,9.82
2023-09-27T04:08:12.069Z,9.76
2023-09-27T04:10:38.790Z,9.79
2023-09-27T04:13:05.543Z,9.79
2023-09-27T04:15:32.424Z,9.81
2023-09-27T04:17:59.275Z,9.81
2023-09-27T04:20:26.920Z,9.81
2023-09-27T04:22:53.649Z,9.80
2023-09-27T04:25:21.052Z,9.78
2023-09-27T04:27:51.147Z,9.78
2023-09-27T04:30:23.331Z,9.77
2023-09-27T04:32:54.350Z,9.73
2023-09-27T04:35:21.988Z,9.71
2023-09-27T04:37:49.754Z,9.71
2023-09-27T04:40:16.827Z,9.64
2023-09-27T04:42:45.080Z,9.67
2023-09-27T04:45:13.993Z,9.66
2023-09-27T04:47:42.406Z,9.72
2023-09-27T04:50:19.184Z,9.73
2023-09-27T04:52:46.390Z,9.80
2023-09-27T04:55:14.297Z,9.86
2023-09-27T04:57:41.787Z,9.96
2023-09-27T05:00:15.415Z,9.96
2023-09-27T05:02:42.714Z,10.05
2023-09-27T05:05:09.902Z,10.13
2023-09-27T05:07:36.669Z,9.99
2023-09-27T05:10:04.615Z,10.12
2023-09-27T05:12:31.326Z,10.20
2023-09-27T05:14:59.563Z,10.15
2023-09-27T05:17:26.769Z,10.21
2023-09-27T05:19:54.629Z,10.23
2023-09-27T05:22:21.625Z,10.24
2023-09-27T05:24:48.614Z,10.27
2023-09-27T05:27:46.361Z,10.32
2023-09-27T05:30:13.643Z,10.35
2023-09-27T07:33:18.943Z,16.51
2023-09-27T07:35:46.522Z,16.81
2023-09-27T07:38:13.254Z,17.11
2023-09-27T07:40:40.124Z,17.39
2023-09-27T07:43:06.996Z,17.59
2023-09-27T07:45:36.628Z,17.85
2023-09-27T07:48:04.916Z,18.09
2023-09-27T07:50:34.911Z,18.30
2023-09-27T07:53:05.254Z,18.50
2023-09-27T07:55:35.154Z,18.72
2023-09-27T07:58:02.297Z,18.91
2023-09-27T08:00:30.902Z,19.00
2023-09-27T08:03:01.896Z,19.15
2023-09-27T08:05:29.132Z,19.25
2023-09-27T08:07:56.258Z,19.43
2023-09-27T08:10:23.670Z,19.54
2023-09-27T08:12:50.571Z,19.70
2023-09-27T08:15:19.462Z,19.82
2023-09-27T08:17:47.631Z,19.95
2023-09-27T08:20:15.001Z,20.13
2023-09-27T08:22:41.939Z,20.27
2023-09-27T08:25:18.461Z,20.42
2023-09-27T08:27:45.830Z,20.61
2023-09-27T08:30:13.569Z,20.71
2023-09-27T08:32:41.134Z,20.97
2023-09-27T08:35:09.813Z,21.18
2023-09-27T08:37:36.952Z,21.37
2023-09-27T08:40:08.568Z,21.61
2023-09-27T08:42:35.558Z,21.83
2023-09-27T08:45:07.162Z,22.07
2023-09-27T08:47:34.578Z,22.28
2023-09-27T08:50:01.464Z,22.46
2023-09-27T08:52:29.310Z,22.66
2023-09-27T08:54:56.207Z,22.81
2023-09-27T08:57:30.108Z,23.04
2023-09-27T08:59:57.103Z,23.20
2023-09-27T09:02:27.965Z,23.40
2023-09-27T09:04:55.483Z,23.60
2023-09-27T09:07:22.293Z,23.75
2023-09-27T09:09:49.134Z,23.94
2023-09-27T09:12:15.716Z,24.11
2023-09-27T09:14:44.413Z,24.25
2023-09-27T09:17:20.112Z,24.31
2023-09-27T09:20:17.456Z,24.49
2023-09-27T09:22:45.722Z,24.61
2023-09-27T09:25:12.999Z,24.91
2023-09-27T09:27:41.776Z,25.06
2023-09-27T09:30:13.289Z,25.27
2023-09-27T09:32:52.974Z,25.42
2023-09-27T09:35:35.487Z,25.56
2023-09-27T09:38:04.214Z,25.70
2023-09-27T09:40:32.909Z,25.82
2023-09-27T09:43:01.091Z,25.93
2023-09-27T09:45:30.296Z,26.07
2023-09-27T09:47:57.817Z,26.23
2023-09-27T09:50:24.826Z,26.38
2023-09-27T09:52:59.225Z,26.48
2023-09-27T09:55:45.636Z,26.57
2023-09-27T09:58:49.039Z,26.63
2023-09-27T10:01:23.000Z,26.64
2023-09-27T10:03:52.818Z,26.72
2023-09-27T10:06:32.460Z,26.80
2023-09-27T10:09:15.447Z,26.85
2023-09-27T10:11:46.944Z,26.81
2023-09-27T10:14:17.190Z,26.75
2023-09-27T10:16:44.697Z,26.80
2023-09-27T10:19:11.864Z,26.87
2023-09-27T10:22:09.045Z,26.93
2023-09-27T10:24:37.339Z,26.98
2023-09-27T10:27:04.210Z,27.06
2023-09-27T10:29:30.935Z,27.13
2023-09-27T10:31:57.727Z,27.17
2023-09-27T10:34:28.788Z,27.21
2023-09-27T10:37:14.979Z,27.20
2023-09-27T10:40:22.180Z,27.27
2023-09-27T10:42:49.662Z,27.31
2023-09-27T10:45:18.420Z,27.27
2023-09-27T10:47:48.144Z,27.07
2023-09-27T10:50:15.157Z,26.89
2023-09-27T10:52:42.066Z,26.94
2023-09-27T10:55:13.225Z,27.06
2023-09-27T10:57:43.264Z,27.16
2023-09-27T11:00:14.127Z,27.28
2023-09-27T11:02:43.055Z,27.20
2023-09-27T11:05:10.477Z,27.30
2023-09-27T11:07:48.228Z,27.39
2023-09-27T11:10:29.670Z,27.46
2023-09-27T11:13:07.495Z,27.56
2023-09-27T11:15:34.473Z,27.67
2023-09-27T11:18:01.257Z,27.69
2023-09-27T11:20:28.109Z,27.82
2023-09-27T11:22:59.700Z,27.93
2023-09-27T11:25:28.521Z,28.00
2023-09-27T11:27:55.446Z,28.09
2023-09-27T11:30:31.330Z,28.22
2023-09-27T11:32:59.240Z,28.30
2023-09-27T11:35:27.342Z,28.38
2023-09-27T11:38:11.052Z,28.47
2023-09-27T11:40:39.625Z,28.53
2023-09-27T11:43:06.829Z,28.55
2023-09-27T11:46:04.404Z,28.55
2023-09-27T11:48:34.852Z,28.51
2023-09-27T11:51:02.744Z,28.44
2023-09-27T11:53:29.743Z,28.38
2023-09-27T11:55:56.836Z,28.45
2023-09-27T11:58:26.161Z,28.45
2023-09-27T12:00:53.094Z,28.56
2023-09-27T12:03:19.922Z,28.61
2023-09-27T12:05:47.468Z,28.60
2023-09-27T12:08:14.336Z,28.64
2023-09-27T12:10:41.179Z,28.72
2023-09-27T12:13:08.459Z,28.75
2023-09-27T12:15:35.130Z,28.76
2023-09-27T12:18:01.998Z,28.82
2023-09-27T12:20:40.285Z,28.88
2023-09-27T12:23:10.499Z,28.96
2023-09-27T12:25:38.081Z,29.00
2023-09-27T12:28:05.018Z,29.03
2023-09-27T12:30:31.938Z,29.14
2023-09-27T12:32:58.813Z,29.20
2023-09-27T12:35:25.790Z,29.24
2023-09-27T12:37:52.528Z,29.24
2023-09-27T12:40:19.590Z,29.32
2023-09-27T12:42:46.304Z,29.36
2023-09-27T12:45:13.094Z,29.42
2023-09-27T12:47:40.110Z,29.47
2023-09-27T12:50:08.211Z,29.48
2023-09-27T12:52:35.832Z,29.43
2023-09-27T12:55:02.781Z,29.33
2023-09-27T12:57:29.459Z,29.22
2023-09-27T12:59:57.086Z,29.11
2023-09-27T13:02:23.960Z,28.92
2023-09-27T13:04:50.630Z,28.76
2023-09-27T13:07:18.377Z,28.55
2023-09-27T13:09:45.580Z,28.31
2023-09-27T13:12:12.245Z,28.11
2023-09-27T13:14:38.939Z,28.00
2023-09-27T13:17:05.795Z,27.86
2023-09-27T13:19:32.659Z,27.86
2023-09-27T13:21:59.642Z,27.89
2023-09-27T13:24:26.472Z,27.91
2023-09-27T13:26:53.226Z,27.95
2023-09-27T13:29:19.953Z,27.93
2023-09-27T13:31:46.647Z,27.91
2023-09-27T13:34:13.909Z,27.90
2023-09-27T13:36:41.664Z,27.83
2023-09-27T13:39:15.208Z,27.79
2023-09-27T13:41:48.614Z,27.73
2023-09-27T13:44:15.601Z,27.77
2023-09-27T13:46:42.931Z,27.77
2023-09-27T13:49:10.104Z,27.69
2023-09-27T13:51:37.902Z,27.64
2023-09-27T13:54:09.296Z,27.54
2023-09-27T13:56:38.274Z,27.48
2023-09-27T13:59:05.761Z,27.39
2023-09-27T14:01:32.904Z,27.36
2023-09-27T14:04:00.251Z,27.28
2023-09-27T14:06:31.449Z,27.26
2023-09-27T14:09:01.199Z,27.20
2023-09-27T14:11:28.174Z,27.23
2023-09-27T14:13:55.035Z,27.21
2023-09-27T14:16:22.009Z,27.16
2023-09-27T14:18:48.942Z,27.12
2023-09-27T14:21:15.605Z,27.09
2023-09-27T14:23:45.888Z,27.04
2023-09-27T14:26:12.883Z,26.97
2023-09-27T14:28:40.169Z,26.95
2023-09-27T14:31:06.968Z,26.88
2023-09-27T14:33:35.058Z,26.80
2023-09-27T14:36:05.711Z,26.72
2023-09-27T14:38:35.986Z,26.64
2023-09-27T14:41:10.284Z,26.57
2023-09-27T14:43:40.383Z,26.53
2023-09-27T14:46:13.749Z,26.42
2023-09-27T14:48:41.637Z,26.41
2023-09-27T14:51:12.964Z,26.34
2023-09-27T14:53:42.128Z,26.27
2023-09-27T14:56:10.480Z,26.21
2023-09-27T14:58:37.782Z,26.14
2023-09-27T15:01:05.553Z,26.04
2023-09-27T15:03:33.808Z,25.99
2023-09-27T15:06:05.087Z,25.94
2023-09-27T15:08:32.091Z,25.89
2023-09-27T15:10:58.893Z,25.84
2023-09-27T15:13:26.502Z,25.71
2023-09-27T15:15:53.554Z,25.69
2023-09-27T15:18:21.935Z,25.64
2023-09-27T15:20:50.543Z,25.56
2023-09-27T15:23:17.225Z,25.48
2023-09-27T15:25:43.928Z,25.40
2023-09-27T15:28:10.610Z,25.33
2023-09-27T15:30:37.747Z,25.28
2023-09-27T15:33:04.722Z,25.19
2023-09-27T15:35:31.818Z,25.15
2023-09-27T15:37:59.559Z,25.05
2023-09-27T15:40:26.394Z,24.99
2023-09-27T15:42:56.707Z,24.89
2023-09-27T15:45:29.252Z,24.86
2023-09-27T15:47:56.018Z,24.78
2023-09-27T15:50:22.812Z,24.73
2023-09-27T15:52:49.588Z,24.68
2023-09-27T15:55:18.123Z,24.59
2023-09-27T15:57:45.162Z,24.46
2023-09-27T16:00:14.899Z,24.34
2023-09-27T16:02:41.579Z,24.20
2023-09-27T16:05:12.701Z,24.01
2023-09-27T16:07:40.545Z,23.86
2023-09-27T16:10:10.711Z,23.74
2023-09-27T16:12:37.983Z,23.63
2023-09-27T16:15:10.885Z,23.52
2023-09-27T16:17:40.220Z,23.42
2023-09-27T16:20:08.240Z,23.26
2023-09-27T16:22:35.158Z,23.07
2023-09-27T16:25:05.281Z,22.98
2023-09-27T16:27:32.488Z,22.82
2023-09-27T16:29:59.248Z,22.75
2023-09-27T16:32:26.577Z,22.67
2023-09-27T16:34:53.388Z,22.56
2023-09-27T16:37:20.463Z,22.44
2023-09-27T16:39:48.718Z,22.35
2023-09-27T16:42:15.387Z,22.25
2023-09-27T16:44:42.176Z,22.09
2023-09-27T16:47:09.127Z,22.03
2023-09-27T16:49:35.828Z,21.93
2023-09-27T16:52:03.871Z,21.83
2023-09-27T16:54:30.558Z,21.75
2023-09-27T16:56:58.230Z,21.66
2023-09-27T16:59:25.229Z,21.54
2023-09-27T17:01:54.941Z,21.48
2023-09-27T17:04:21.785Z,21.44
2023-09-27T17:06:51.467Z,21.39
2023-09-27T17:09:18.099Z,21.38
2023-09-27T17:11:44.744Z,21.41
2023-09-27T17:14:12.104Z,21.44
2023-09-27T17:16:38.933Z,21.43
2023-09-27T17:19:06.386Z,21.46
2023-09-27T17:21:34.625Z,21.45
2023-09-27T17:24:01.280Z,21.57
2023-09-27T17:26:29.570Z,21.61
2023-09-27T17:28:56.487Z,21.66
2023-09-27T17:31:23.335Z,21.67
2023-09-27T17:33:50.131Z,21.65
2023-09-27T17:36:17.004Z,21.60
2023-09-27T17:38:43.604Z,21.46
2023-09-27T17:41:10.695Z,21.26
2023-09-27T17:43:37.947Z,21.15
2023-09-27T17:46:27.846Z,21.18
2023-09-27T17:48:57.329Z,21.20
2023-09-27T17:51:24.462Z,21.25
2023-09-27T17:53:52.396Z,21.23
2023-09-27T17:56:21.758Z,21.20
2023-09-27T17:58:48.826Z,21.30
2023-09-27T18:01:15.601Z,21.32
2023-09-27T18:03:42.723Z,21.29
2023-09-27T18:06:14.273Z,21.31
2023-09-27T18:08:41.428Z,21.33
2023-09-27T18:11:12.127Z,21.35
2023-09-27T18:13:40.119Z,21.35
2023-09-27T18:16:18.193Z,21.32
2023-09-27T18:18:46.136Z,21.28
2023-09-27T18:21:22.874Z,21.30
2023-09-27T18:23:52.946Z,21.22
2023-09-27T18:26:20.052Z,21.10
2023-09-27T18:28:51.916Z,21.07
2023-09-27T18:31:21.670Z,21.03
2023-09-27T18:33:48.436Z,21.01
2023-09-27T18:36:15.145Z,20.98
2023-09-27T18:38:46.770Z,20.91
2023-09-27T18:41:13.624Z,20.82
2023-09-27T18:43:40.266Z,20.64
2023-09-27T18:46:07.148Z,20.43
2023-09-27T18:48:34.381Z,20.32
2023-09-27T18:51:01.335Z,20.20
2023-09-27T18:53:27.971Z,20.03
2023-09-27T18:55:57.291Z,19.87
2023-09-27T18:58:25.336Z,19.74
2023-09-27T19:04:31.372Z,19.24
2023-09-27T19:06:58.289Z,19.12
2023-09-27T19:09:26.464Z,18.96
2023-09-27T19:11:54.516Z,18.76
2023-09-27T19:16:59.952Z,18.47
2023-09-27T19:19:26.651Z,18.30
2023-09-27T19:21:53.303Z,18.24
2023-09-27T19:24:20.428Z,18.05
2023-09-27T19:26:47.078Z,17.92
2023-09-27T19:29:13.784Z,17.89
2023-09-27T19:31:40.543Z,17.76
2023-09-27T19:34:07.592Z,17.62
2023-09-27T19:36:36.070Z,17.52
2023-09-27T19:39:05.817Z,17.39
2023-09-27T19:41:33.173Z,17.30
2023-09-27T19:43:59.863Z,17.09
2023-09-27T19:46:26.710Z,17.03
2023-09-27T19:48:56.401Z,16.98
2023-09-27T19:51:25.773Z,16.89
2023-09-27T19:54:01.788Z,16.82
2023-09-27T19:56:31.208Z,16.71
2023-09-27T19:59:01.427Z,16.58
2023-09-27T20:01:30.363Z,16.46
2023-09-27T20:03:57.295Z,16.35
2023-09-27T20:06:26.815Z,16.22
2023-09-27T20:08:53.425Z,16.11
2023-09-27T20:11:20.793Z,16.01
2023-09-27T20:13:48.021Z,15.87
2023-09-27T20:16:15.658Z,15.83
2023-09-27T20:18:42.374Z,15.72
2023-09-27T20:21:09.053Z,15.69
2023-09-27T20:23:35.612Z,15.62
2023-09-27T20:26:03.089Z,15.58
2023-09-27T20:28:29.785Z,15.56
2023-09-27T20:30:56.609Z,15.51
2023-09-27T20:33:23.170Z,15.46
2023-09-27T20:35:49.755Z,15.39
2023-09-27T20:38:16.466Z,15.32
2023-09-27T20:40:43.079Z,15.19
2023-09-27T20:43:09.684Z,15.15
2023-09-27T20:45:36.632Z,15.00
2023-09-27T20:48:03.424Z,14.94
2023-09-27T20:50:30.142Z,14.84
2023-09-27T20:52:57.163Z,14.79
2023-09-27T20:55:25.532Z,14.75
2023-09-27T20:57:52.411Z,14.72
2023-09-27T21:00:23.613Z,14.58
2023-09-27T21:02:50.675Z,14.64
2023-09-27T21:05:17.570Z,14.62
2023-09-27T21:07:44.294Z,14.58
2023-09-27T21:10:11.081Z,14.40
2023-09-27T21:12:37.728Z,14.48
2023-09-27T21:15:06.895Z,14.42
2023-09-27T21:17:33.765Z,14.37
2023-09-27T21:20:01.663Z,14.36
2023-09-27T21:22:28.480Z,14.26
2023-09-27T21:24:55.098Z,14.17
2023-09-27T21:27:21.694Z,14.16
2023-09-27T21:29:48.419Z,14.09
2023-09-27T21:32:15.020Z,14.01
2023-09-27T21:34:41.822Z,13.96
2023-09-27T21:37:08.798Z,13.93
2023-09-27T21:39:36.635Z,13.87
2023-09-27T21:42:03.263Z,13.82
2023-09-27T21:44:31.387Z,13.72
2023-09-27T21:46:58.016Z,13.70
2023-09-27T21:49:25.739Z,13.64
2023-09-27T21:51:52.726Z,13.58
2023-09-27T21:54:19.910Z,13.58
2023-09-27T21:56:46.638Z,13.54
2023-09-27T21:59:13.361Z,13.50
2023-09-27T22:01:40.153Z,13.44
2023-09-27T22:04:07.517Z,13.44
2023-09-27T22:06:34.219Z,13.37
2023-09-27T22:09:00.802Z,13.34
2023-09-27T22:11:27.418Z,13.19
2023-09-27T22:13:55.821Z,13.19
2023-09-27T22:16:23.017Z,13.16
2023-09-27T22:18:50.388Z,13.14
2023-09-27T22:21:28.320Z,13.09
2023-09-27T22:23:57.478Z,13.00
2023-09-27T22:26:26.242Z,12.99
2023-09-27T22:28:56.842Z,12.89
2023-09-27T22:31:32.393Z,12.89
2023-09-27T22:34:11.298Z,12.82
2023-09-27T22:36:47.861Z,12.83
2023-09-27T22:39:17.649Z,12.81
2023-09-27T22:41:46.714Z,12.85
2023-09-27T22:44:23.736Z,12.80
2023-09-27T22:46:54.676Z,12.79
2023-09-27T22:49:25.041Z,12.73
2023-09-27T22:51:52.625Z,12.74
2023-09-27T22:54:21.733Z,12.69
2023-09-27T22:56:50.760Z,12.66
2023-09-27T22:59:18.481Z,12.60
2023-09-27T23:01:47.558Z,12.58
2023-09-27T23:04:17.233Z,12.54
2023-09-27T23:07:01.274Z,12.50
2023-09-27T23:09:35.343Z,12.47
2023-09-27T23:12:18.672Z,12.45
2023-09-27T23:15:04.724Z,12.41
2023-09-27T23:17:44.539Z,12.31
2023-09-27T23:20:12.683Z,12.32
2023-09-27T23:22:58.097Z,12.30
2023-09-27T23:25:53.111Z,12.26
2023-09-27T23:28:28.608Z,12.26
2023-09-27T23:30:56.667Z,12.22
2023-09-27T23:33:23.515Z,12.15
2023-09-27T23:35:51.336Z,12.07
2023-09-27T23:38:37.602Z,12.06
2023-09-27T23:41:04.305Z,12.02
2023-09-27T23:43:41.274Z,11.97
2023-09-27T23:46:15.788Z,11.98
2023-09-27T23:48:43.412Z,11.96
2023-09-27T23:51:10.073Z,11.92
2023-09-27T23:53:37.304Z,11.94
2023-09-27T23:56:07.769Z,11.91
2023-09-27T23:58:35.556Z,11.86
